Terminal Aerodrome Forecast
Issued by NWS Hastings, NE

Home | Current Version | Previous Version | Text Only | Print | Product List | Glossary On
Versions: 1 2 3 4 5 6 7 8 9 10 11 12
952
FTUS45 KGID 240520
TAFEAR
TAF
KEAR 240520Z 2406/2506 22009KT P6SM SCT250
     FM241400 26012KT P6SM SCT250 WS020/31035KT
     FM241600 28017G24KT P6SM SCT250
     FM241700 31021G29KT P6SM SCT250
     FM242200 34016KT P6SM FEW250
     FM250400 VRB05KT P6SM FEW200=

USA.gov is the U.S. government's official web portal to all federal, state and local government web resources and services.